Four Otello — 9HA4680 — position and weather

sailwx.info

Track history (hours):
 
Tides and Currents Weather Stations Pressure Air Temp Water Temp Dewpoint Dewpoint Depression Visibility Wind Speed Wind Dir Waves Ship Positions

Four Otello

Last reported at 2017-Dec-11 14:39 UTC. Time now 2017-Dec-14 17:16 UTC.
Position N 35°54' W 005°55'.

Length 180 m; draft 9.2 m.

Type: Cargo ship. MMSI: 248510000.

Date/timePositionNaut miles runAvg speedWind from/ knotsBaromVisibWave heightAir tempDewpointWater temp
2017-Dec-11 14:39N 35°54' W 005°55'212.2
2017-Dec-11 14:30N 35°54' W 005°57'612.2
2017-Dec-11 14:00N 35°54' W 006°04'611.9
2017-Dec-11 13:30N 35°54' W 006°12'611.8
2017-Dec-11 13:00N 35°54' W 006°19'611.9
2017-Dec-11 12:30N 35°56' W 006°26'611.3
2017-Dec-11 12:00N 35°57' W 006°33'611.1
2017-Dec-11 11:30N 35°58' W 006°39'611.2
2017-Dec-11 11:00N 36°00' W 006°46'511.0
2017-Dec-11 10:30N 36°01' W 006°53'611.0
2017-Dec-11 10:00N 36°03' W 006°59'611.1
2017-Dec-11 09:30N 36°04' W 007°06'611.2
2017-Dec-11 09:00N 36°06' W 007°12'611.3
2017-Dec-11 08:30N 36°08' W 007°19'611.3
2017-Dec-11 08:00N 36°09' W 007°26'611.4
2017-Dec-11 07:30N 36°11' W 007°33'17210.0
2017-Dec-10 14:22N 38°16' W 009°59'512.5
2017-Dec-10 13:59N 38°21' W 010°00'812.5
2017-Dec-10 13:20N 38°29' W 010°03'412.4
2017-Dec-10 12:59N 38°33' W 010°04'612.4
2017-Dec-10 12:30N 38°39' W 010°05'612.4
2017-Dec-10 12:00N 38°45' W 010°06'612.6
2017-Dec-10 11:30N 38°52' W 010°07'613.0
2017-Dec-10 11:00N 38°58' W 010°06'612.8
2017-Dec-10 10:30N 39°04' W 010°06'712.9
2017-Dec-10 09:57N 39°12' W 010°06'  
2017-Dec-07 16:43N 49°47' W 003°26'211.5
2017-Dec-07 16:30N 49°49' W 003°23'611.9
2017-Dec-07 16:00N 49°52' W 003°15'612.2
2017-Dec-07 15:30N 49°55' W 003°07'612.3
2017-Dec-07 15:00N 49°58' W 002°58'612.0
2017-Dec-07 14:28N 49°60' W 002°49'510.9
2017-Dec-07 14:00N 50°01' W 002°41'610.5
2017-Dec-07 13:28N 50°03' W 002°33'5 9.4
2017-Dec-07 12:59N 50°04' W 002°26'5 8.2
2017-Dec-07 12:21N 50°05' W 002°19'3 7.1
2017-Dec-07 11:57N 50°06' W 002°14'5 6.1
2017-Dec-07 11:09N 50°08' W 002°07'1 5.8
2017-Dec-07 10:57N 50°08' W 002°05'5 4.9
2017-Dec-07 09:58N 50°09' W 001°58'2 4.8
2017-Dec-07 09:27N 50°10' W 001°54'3 5.1
2017-Dec-07 08:57N 50°11' W 001°50'5410.2
2017-Dec-07 03:41N 50°25' W 000°29'211.7
2017-Dec-07 03:30N 50°26' W 000°26'611.4
2017-Dec-07 03:00N 50°27' W 000°18'611.0
2017-Dec-07 02:30N 50°29' W 000°09'510.5
2017-Dec-07 02:00N 50°30' W 000°01'510.3
2017-Dec-07 01:30N 50°31' E 000°07'5 9.8
2017-Dec-07 01:00N 50°32' E 000°14'5 9.4
2017-Dec-07 00:30N 50°34' E 000°21'5 9.0
2017-Dec-07 00:00N 50°35' E 000°28'4 8.9
2017-Dec-06 23:30N 50°36' E 000°35'4 8.9
2017-Dec-06 23:00N 50°38' E 000°41'5 9.2
2017-Dec-06 22:30N 50°41' E 000°46'5 9.8
2017-Dec-06 22:00N 50°44' E 000°53'510.7
2017-Dec-06 21:30N 50°47' E 000°60'611.7
2017-Dec-06 21:00N 50°50' E 001°08'  
2017-Dec-04 10:28N 51°48' E 004°38'0 0.0
2017-Dec-04 09:58N 51°48' E 004°38'0 0.0
2017-Dec-04 09:25N 51°48' E 004°38'0 0.0
2017-Dec-04 08:58N 51°48' E 004°38'0 0.0
2017-Dec-04 08:28N 51°48' E 004°38'0 0.0
2017-Dec-04 07:58N 51°48' E 004°38'0 0.0
2017-Dec-04 07:28N 51°48' E 004°38'0 0.0
2017-Dec-04 06:58N 51°48' E 004°38'0 0.0
2017-Dec-04 06:28N 51°48' E 004°38'0 0.0
2017-Dec-04 05:58N 51°48' E 004°38'0 0.0
2017-Dec-04 05:28N 51°48' E 004°38'0 0.0
2017-Dec-04 04:58N 51°48' E 004°38'0 0.0
2017-Dec-04 04:28N 51°48' E 004°38'0 0.0
2017-Dec-04 03:58N 51°48' E 004°38'0 0.0
2017-Dec-04 03:28N 51°48' E 004°38'0 0.0
2017-Dec-04 02:58N 51°48' E 004°38'0 0.0
2017-Dec-04 02:28N 51°48' E 004°38'0 0.0
2017-Dec-04 01:58N 51°48' E 004°38'0 0.0
2017-Dec-04 01:28N 51°48' E 004°38'0 0.0
2017-Dec-04 00:58N 51°48' E 004°38'0 0.0
2017-Dec-04 00:28N 51°48' E 004°38'0 0.0
2017-Dec-03 23:58N 51°48' E 004°38'0 0.0
2017-Dec-03 23:28N 51°48' E 004°38'0 0.0
2017-Dec-03 22:58N 51°48' E 004°38'0 0.0
2017-Dec-03 22:28N 51°48' E 004°38'0 0.0
2017-Dec-03 21:58N 51°48' E 004°38'0 0.0
2017-Dec-03 21:28N 51°48' E 004°38'0 0.0
2017-Dec-03 20:58N 51°48' E 004°38'0 0.0
2017-Dec-03 20:28N 51°48' E 004°38'0 0.0
2017-Dec-03 19:58N 51°48' E 004°38'0 0.0
2017-Dec-03 19:28N 51°48' E 004°38'0 0.0
2017-Dec-03 18:58N 51°48' E 004°38'0 0.0
2017-Dec-03 18:28N 51°48' E 004°38'0 0.0
2017-Dec-03 17:58N 51°48' E 004°38'0 0.0
2017-Dec-03 17:28N 51°48' E 004°38'0 0.0
2017-Dec-03 16:58N 51°48' E 004°38'0 0.0
2017-Dec-03 16:28N 51°48' E 004°38'0 0.0
2017-Dec-03 15:58N 51°48' E 004°38'0 0.0
2017-Dec-03 15:28N 51°48' E 004°38'0 0.0
2017-Dec-03 14:58N 51°48' E 004°38'0 0.0
2017-Dec-03 14:28N 51°48' E 004°38'0 0.0
2017-Dec-03 13:58N 51°48' E 004°38'0 0.0
2017-Dec-03 13:28N 51°48' E 004°38'0 0.0
2017-Dec-03 12:58N 51°48' E 004°38'0 0.0
2017-Dec-03 12:28N 51°48' E 004°38'0 0.0
2017-Dec-03 11:58N 51°48' E 004°38'0 0.0
2017-Dec-03 11:28N 51°48' E 004°38'0 0.0
2017-Dec-03 10:58N 51°48' E 004°38'0 0.0
2017-Dec-03 10:28N 51°48' E 004°38'0 0.0
2017-Dec-03 09:58N 51°48' E 004°38'0 0.0
2017-Dec-03 09:28N 51°48' E 004°38'0 0.0
2017-Dec-03 08:58N 51°48' E 004°38'0 0.0
2017-Dec-03 08:28N 51°48' E 004°38'0 0.0
2017-Dec-03 07:58N 51°48' E 004°38'0 0.0
2017-Dec-03 07:28N 51°48' E 004°38'0 0.0
2017-Dec-03 06:58N 51°48' E 004°38'0 0.0
2017-Dec-03 06:28N 51°48' E 004°38'0 0.0
2017-Dec-03 05:58N 51°48' E 004°38'0 0.0
2017-Dec-03 05:28N 51°48' E 004°38'0 0.0
2017-Dec-03 04:58N 51°48' E 004°38'0 0.0
2017-Dec-03 04:28N 51°48' E 004°38'0 0.0
2017-Dec-03 03:58N 51°48' E 004°38'0 0.0
2017-Dec-03 03:28N 51°48' E 004°38'0 0.0
2017-Dec-03 02:58N 51°48' E 004°38'0 0.0
2017-Dec-03 02:28N 51°48' E 004°38'0 0.0
2017-Dec-03 01:58N 51°48' E 004°38'0 0.0
2017-Dec-03 01:28N 51°48' E 004°38'0 0.0
2017-Dec-03 00:58N 51°48' E 004°38'0 0.0
2017-Dec-03 00:28N 51°48' E 004°38'0 0.0
2017-Dec-02 23:58N 51°48' E 004°38'0 0.0
2017-Dec-02 23:28N 51°48' E 004°38'0 0.0
2017-Dec-02 22:58N 51°48' E 004°38'0 0.0
2017-Dec-02 22:28N 51°48' E 004°38'0 0.0
2017-Dec-02 21:58N 51°48' E 004°38'0 0.0
2017-Dec-02 21:28N 51°48' E 004°38'0 0.0
2017-Dec-02 20:58N 51°48' E 004°38'0 0.0
2017-Dec-02 20:28N 51°48' E 004°38'0 0.0
2017-Dec-02 19:58N 51°48' E 004°38'0 0.0
2017-Dec-02 19:28N 51°48' E 004°38'0 0.0
2017-Dec-02 18:58N 51°48' E 004°38'0 0.0
2017-Dec-02 18:28N 51°48' E 004°38'0 0.0
2017-Dec-02 17:58N 51°48' E 004°38'0 0.0
2017-Dec-02 17:28N 51°48' E 004°38'0 0.0
2017-Dec-02 16:58N 51°48' E 004°38'0 0.0
2017-Dec-02 16:28N 51°48' E 004°38'0 0.0
2017-Dec-02 15:58N 51°48' E 004°38'0 0.0
2017-Dec-02 15:28N 51°48' E 004°38'0 0.0
2017-Dec-02 14:58N 51°48' E 004°38'0 0.0
2017-Dec-02 14:28N 51°48' E 004°38'0 0.0
2017-Dec-02 13:58N 51°48' E 004°38'0 0.0
2017-Dec-02 13:28N 51°48' E 004°38'0 0.0
2017-Dec-02 12:58N 51°48' E 004°38'0 0.0
2017-Dec-02 12:28N 51°48' E 004°38'0 0.0
2017-Dec-02 11:58N 51°48' E 004°38'0 0.0
2017-Dec-02 11:28N 51°48' E 004°38'0 0.0
2017-Dec-02 10:58N 51°48' E 004°38'0 0.0
2017-Dec-02 10:28N 51°48' E 004°38'0 0.0
2017-Dec-02 09:58N 51°48' E 004°38'0 0.0
2017-Dec-02 09:28N 51°48' E 004°38'0 0.0
2017-Dec-02 08:58N 51°48' E 004°38'0 0.0
2017-Dec-02 08:28N 51°48' E 004°38'0 0.0
2017-Dec-02 07:55N 51°48' E 004°38'0 0.0
2017-Dec-02 07:28N 51°48' E 004°38'0 0.0
2017-Dec-02 06:58N 51°48' E 004°38'0 0.0
2017-Dec-02 06:28N 51°48' E 004°38'0 0.0
2017-Dec-02 05:58N 51°48' E 004°38'0 0.0
2017-Dec-02 05:28N 51°48' E 004°38'0 0.0
2017-Dec-02 04:58N 51°48' E 004°38'0 0.0
2017-Dec-02 04:28N 51°48' E 004°38'0 0.0
2017-Dec-02 03:58N 51°48' E 004°38'0 0.0
2017-Dec-02 03:28N 51°48' E 004°38'0 0.0
2017-Dec-02 02:58N 51°48' E 004°38'0 0.0
2017-Dec-02 02:28N 51°48' E 004°38'0 0.0
2017-Dec-02 01:58N 51°48' E 004°38'0 0.0
2017-Dec-02 01:28N 51°48' E 004°38'0 0.0
2017-Dec-02 00:58N 51°48' E 004°38'0 0.0
2017-Dec-02 00:28N 51°48' E 004°38'0 0.0
2017-Dec-01 23:58N 51°48' E 004°38'0 0.0
2017-Dec-01 23:28N 51°48' E 004°38'0 0.0
2017-Dec-01 22:58N 51°48' E 004°38'0 0.0
2017-Dec-01 22:28N 51°48' E 004°38'0 0.0
2017-Dec-01 21:58N 51°48' E 004°38'0 0.0
2017-Dec-01 21:28N 51°48' E 004°38'0 0.0
2017-Dec-01 20:58N 51°48' E 004°38'0 0.0
2017-Dec-01 20:28N 51°48' E 004°38'0 0.0
2017-Dec-01 19:58N 51°48' E 004°38'0 0.0
2017-Dec-01 19:28N 51°48' E 004°38'0 0.0
2017-Dec-01 18:58N 51°48' E 004°38'0 0.0
2017-Dec-01 18:28N 51°48' E 004°38'0 0.0
2017-Dec-01 17:58N 51°48' E 004°38'0 0.0
2017-Dec-01 17:28N 51°48' E 004°38'0 0.0
2017-Dec-01 16:58N 51°48' E 004°38'0 0.0
2017-Dec-01 16:28N 51°48' E 004°38'0 0.0
2017-Dec-01 15:58N 51°48' E 004°38'0 0.0
2017-Dec-01 15:28N 51°48' E 004°38'0 0.0
2017-Dec-01 14:58N 51°48' E 004°38'  
Track history (hours):
 
Tides and Currents Weather Stations Pressure Air Temp Water Temp Dewpoint Dewpoint Depression Visibility Wind Speed Wind Dir Waves Ship Positions

Four Otello

Last reported at 2017-Dec-11 14:39 UTC. Time now 2017-Dec-14 17:16 UTC.
Position N 35°54' W 005°55'.

Length 180 m; draft 9.2 m.

Type: Cargo ship. MMSI: 248510000.

Date/timePositionNaut miles runAvg speedWind from/ knotsBaromVisibWave heightAir tempDewpointWater temp
2017-Dec-11 14:39N 35°54' W 005°55'212.2
2017-Dec-11 14:30N 35°54' W 005°57'612.2
2017-Dec-11 14:00N 35°54' W 006°04'611.9
2017-Dec-11 13:30N 35°54' W 006°12'611.8
2017-Dec-11 13:00N 35°54' W 006°19'611.9
2017-Dec-11 12:30N 35°56' W 006°26'611.3
2017-Dec-11 12:00N 35°57' W 006°33'611.1
2017-Dec-11 11:30N 35°58' W 006°39'611.2
2017-Dec-11 11:00N 36°00' W 006°46'511.0
2017-Dec-11 10:30N 36°01' W 006°53'611.0
2017-Dec-11 10:00N 36°03' W 006°59'611.1
2017-Dec-11 09:30N 36°04' W 007°06'611.2
2017-Dec-11 09:00N 36°06' W 007°12'611.3
2017-Dec-11 08:30N 36°08' W 007°19'611.3
2017-Dec-11 08:00N 36°09' W 007°26'611.4
2017-Dec-11 07:30N 36°11' W 007°33'17210.0
2017-Dec-10 14:22N 38°16' W 009°59'512.5
2017-Dec-10 13:59N 38°21' W 010°00'812.5
2017-Dec-10 13:20N 38°29' W 010°03'412.4
2017-Dec-10 12:59N 38°33' W 010°04'612.4
2017-Dec-10 12:30N 38°39' W 010°05'612.4
2017-Dec-10 12:00N 38°45' W 010°06'612.6
2017-Dec-10 11:30N 38°52' W 010°07'613.0
2017-Dec-10 11:00N 38°58' W 010°06'612.8
2017-Dec-10 10:30N 39°04' W 010°06'712.9
2017-Dec-10 09:57N 39°12' W 010°06'  
2017-Dec-07 16:43N 49°47' W 003°26'211.5
2017-Dec-07 16:30N 49°49' W 003°23'611.9
2017-Dec-07 16:00N 49°52' W 003°15'612.2
2017-Dec-07 15:30N 49°55' W 003°07'612.3
2017-Dec-07 15:00N 49°58' W 002°58'612.0
2017-Dec-07 14:28N 49°60' W 002°49'510.9
2017-Dec-07 14:00N 50°01' W 002°41'610.5
2017-Dec-07 13:28N 50°03' W 002°33'5 9.4
2017-Dec-07 12:59N 50°04' W 002°26'5 8.2
2017-Dec-07 12:21N 50°05' W 002°19'3 7.1
2017-Dec-07 11:57N 50°06' W 002°14'5 6.1
2017-Dec-07 11:09N 50°08' W 002°07'1 5.8
2017-Dec-07 10:57N 50°08' W 002°05'5 4.9
2017-Dec-07 09:58N 50°09' W 001°58'2 4.8
2017-Dec-07 09:27N 50°10' W 001°54'3 5.1
2017-Dec-07 08:57N 50°11' W 001°50'5410.2
2017-Dec-07 03:41N 50°25' W 000°29'211.7
2017-Dec-07 03:30N 50°26' W 000°26'611.4
2017-Dec-07 03:00N 50°27' W 000°18'611.0
2017-Dec-07 02:30N 50°29' W 000°09'510.5
2017-Dec-07 02:00N 50°30' W 000°01'510.3
2017-Dec-07 01:30N 50°31' E 000°07'5 9.8
2017-Dec-07 01:00N 50°32' E 000°14'5 9.4
2017-Dec-07 00:30N 50°34' E 000°21'5 9.0
2017-Dec-07 00:00N 50°35' E 000°28'4 8.9
2017-Dec-06 23:30N 50°36' E 000°35'4 8.9
2017-Dec-06 23:00N 50°38' E 000°41'5 9.2
2017-Dec-06 22:30N 50°41' E 000°46'5 9.8
2017-Dec-06 22:00N 50°44' E 000°53'510.7
2017-Dec-06 21:30N 50°47' E 000°60'611.7
2017-Dec-06 21:00N 50°50' E 001°08'  
2017-Dec-04 10:28N 51°48' E 004°38'0 0.0
2017-Dec-04 09:58N 51°48' E 004°38'0 0.0
2017-Dec-04 09:25N 51°48' E 004°38'0 0.0
2017-Dec-04 08:58N 51°48' E 004°38'0 0.0
2017-Dec-04 08:28N 51°48' E 004°38'0 0.0
2017-Dec-04 07:58N 51°48' E 004°38'0 0.0
2017-Dec-04 07:28N 51°48' E 004°38'0 0.0
2017-Dec-04 06:58N 51°48' E 004°38'0 0.0
2017-Dec-04 06:28N 51°48' E 004°38'0 0.0
2017-Dec-04 05:58N 51°48' E 004°38'0 0.0
2017-Dec-04 05:28N 51°48' E 004°38'0 0.0
2017-Dec-04 04:58N 51°48' E 004°38'0 0.0
2017-Dec-04 04:28N 51°48' E 004°38'0 0.0
2017-Dec-04 03:58N 51°48' E 004°38'0 0.0
2017-Dec-04 03:28N 51°48' E 004°38'0 0.0
2017-Dec-04 02:58N 51°48' E 004°38'0 0.0
2017-Dec-04 02:28N 51°48' E 004°38'0 0.0
2017-Dec-04 01:58N 51°48' E 004°38'0 0.0
2017-Dec-04 01:28N 51°48' E 004°38'0 0.0
2017-Dec-04 00:58N 51°48' E 004°38'0 0.0
2017-Dec-04 00:28N 51°48' E 004°38'0 0.0
2017-Dec-03 23:58N 51°48' E 004°38'0 0.0
2017-Dec-03 23:28N 51°48' E 004°38'0 0.0
2017-Dec-03 22:58N 51°48' E 004°38'0 0.0
2017-Dec-03 22:28N 51°48' E 004°38'0 0.0
2017-Dec-03 21:58N 51°48' E 004°38'0 0.0
2017-Dec-03 21:28N 51°48' E 004°38'0 0.0
2017-Dec-03 20:58N 51°48' E 004°38'0 0.0
2017-Dec-03 20:28N 51°48' E 004°38'0 0.0
2017-Dec-03 19:58N 51°48' E 004°38'0 0.0
2017-Dec-03 19:28N 51°48' E 004°38'0 0.0
2017-Dec-03 18:58N 51°48' E 004°38'0 0.0
2017-Dec-03 18:28N 51°48' E 004°38'0 0.0
2017-Dec-03 17:58N 51°48' E 004°38'0 0.0
2017-Dec-03 17:28N 51°48' E 004°38'0 0.0
2017-Dec-03 16:58N 51°48' E 004°38'0 0.0
2017-Dec-03 16:28N 51°48' E 004°38'0 0.0
2017-Dec-03 15:58N 51°48' E 004°38'0 0.0
2017-Dec-03 15:28N 51°48' E 004°38'0 0.0
2017-Dec-03 14:58N 51°48' E 004°38'0 0.0
2017-Dec-03 14:28N 51°48' E 004°38'0 0.0
2017-Dec-03 13:58N 51°48' E 004°38'0 0.0
2017-Dec-03 13:28N 51°48' E 004°38'0 0.0
2017-Dec-03 12:58N 51°48' E 004°38'0 0.0
2017-Dec-03 12:28N 51°48' E 004°38'0 0.0
2017-Dec-03 11:58N 51°48' E 004°38'0 0.0
2017-Dec-03 11:28N 51°48' E 004°38'0 0.0
2017-Dec-03 10:58N 51°48' E 004°38'0 0.0
2017-Dec-03 10:28N 51°48' E 004°38'0 0.0
2017-Dec-03 09:58N 51°48' E 004°38'0 0.0
2017-Dec-03 09:28N 51°48' E 004°38'0 0.0
2017-Dec-03 08:58N 51°48' E 004°38'0 0.0
2017-Dec-03 08:28N 51°48' E 004°38'0 0.0
2017-Dec-03 07:58N 51°48' E 004°38'0 0.0
2017-Dec-03 07:28N 51°48' E 004°38'0 0.0
2017-Dec-03 06:58N 51°48' E 004°38'0 0.0
2017-Dec-03 06:28N 51°48' E 004°38'0 0.0
2017-Dec-03 05:58N 51°48' E 004°38'0 0.0
2017-Dec-03 05:28N 51°48' E 004°38'0 0.0
2017-Dec-03 04:58N 51°48' E 004°38'0 0.0
2017-Dec-03 04:28N 51°48' E 004°38'0 0.0
2017-Dec-03 03:58N 51°48' E 004°38'0 0.0
2017-Dec-03 03:28N 51°48' E 004°38'0 0.0
2017-Dec-03 02:58N 51°48' E 004°38'0 0.0
2017-Dec-03 02:28N 51°48' E 004°38'0 0.0
2017-Dec-03 01:58N 51°48' E 004°38'0 0.0
2017-Dec-03 01:28N 51°48' E 004°38'0 0.0
2017-Dec-03 00:58N 51°48' E 004°38'0 0.0
2017-Dec-03 00:28N 51°48' E 004°38'0 0.0
2017-Dec-02 23:58N 51°48' E 004°38'0 0.0
2017-Dec-02 23:28N 51°48' E 004°38'0 0.0
2017-Dec-02 22:58N 51°48' E 004°38'0 0.0
2017-Dec-02 22:28N 51°48' E 004°38'0 0.0
2017-Dec-02 21:58N 51°48' E 004°38'0 0.0
2017-Dec-02 21:28N 51°48' E 004°38'0 0.0
2017-Dec-02 20:58N 51°48' E 004°38'0 0.0
2017-Dec-02 20:28N 51°48' E 004°38'0 0.0
2017-Dec-02 19:58N 51°48' E 004°38'0 0.0
2017-Dec-02 19:28N 51°48' E 004°38'0 0.0
2017-Dec-02 18:58N 51°48' E 004°38'0 0.0
2017-Dec-02 18:28N 51°48' E 004°38'0 0.0
2017-Dec-02 17:58N 51°48' E 004°38'0 0.0
2017-Dec-02 17:28N 51°48' E 004°38'0 0.0
2017-Dec-02 16:58N 51°48' E 004°38'0 0.0
2017-Dec-02 16:28N 51°48' E 004°38'0 0.0
2017-Dec-02 15:58N 51°48' E 004°38'0 0.0
2017-Dec-02 15:28N 51°48' E 004°38'0 0.0
2017-Dec-02 14:58N 51°48' E 004°38'0 0.0
2017-Dec-02 14:28N 51°48' E 004°38'0 0.0
2017-Dec-02 13:58N 51°48' E 004°38'0 0.0
2017-Dec-02 13:28N 51°48' E 004°38'0 0.0
2017-Dec-02 12:58N 51°48' E 004°38'0 0.0
2017-Dec-02 12:28N 51°48' E 004°38'0 0.0
2017-Dec-02 11:58N 51°48' E 004°38'0 0.0
2017-Dec-02 11:28N 51°48' E 004°38'0 0.0
2017-Dec-02 10:58N 51°48' E 004°38'0 0.0
2017-Dec-02 10:28N 51°48' E 004°38'0 0.0
2017-Dec-02 09:58N 51°48' E 004°38'0 0.0
2017-Dec-02 09:28N 51°48' E 004°38'0 0.0
2017-Dec-02 08:58N 51°48' E 004°38'0 0.0
2017-Dec-02 08:28N 51°48' E 004°38'0 0.0
2017-Dec-02 07:55N 51°48' E 004°38'0 0.0
2017-Dec-02 07:28N 51°48' E 004°38'0 0.0
2017-Dec-02 06:58N 51°48' E 004°38'0 0.0
2017-Dec-02 06:28N 51°48' E 004°38'0 0.0
2017-Dec-02 05:58N 51°48' E 004°38'0 0.0
2017-Dec-02 05:28N 51°48' E 004°38'0 0.0
2017-Dec-02 04:58N 51°48' E 004°38'0 0.0
2017-Dec-02 04:28N 51°48' E 004°38'0 0.0
2017-Dec-02 03:58N 51°48' E 004°38'0 0.0
2017-Dec-02 03:28N 51°48' E 004°38'0 0.0
2017-Dec-02 02:58N 51°48' E 004°38'0 0.0
2017-Dec-02 02:28N 51°48' E 004°38'0 0.0
2017-Dec-02 01:58N 51°48' E 004°38'0 0.0
2017-Dec-02 01:28N 51°48' E 004°38'0 0.0
2017-Dec-02 00:58N 51°48' E 004°38'0 0.0
2017-Dec-02 00:28N 51°48' E 004°38'0 0.0
2017-Dec-01 23:58N 51°48' E 004°38'0 0.0
2017-Dec-01 23:28N 51°48' E 004°38'0 0.0
2017-Dec-01 22:58N 51°48' E 004°38'0 0.0
2017-Dec-01 22:28N 51°48' E 004°38'0 0.0
2017-Dec-01 21:58N 51°48' E 004°38'0 0.0
2017-Dec-01 21:28N 51°48' E 004°38'0 0.0
2017-Dec-01 20:58N 51°48' E 004°38'0 0.0
2017-Dec-01 20:28N 51°48' E 004°38'0 0.0
2017-Dec-01 19:58N 51°48' E 004°38'0 0.0
2017-Dec-01 19:28N 51°48' E 004°38'0 0.0
2017-Dec-01 18:58N 51°48' E 004°38'0 0.0
2017-Dec-01 18:28N 51°48' E 004°38'0 0.0
2017-Dec-01 17:58N 51°48' E 004°38'0 0.0
2017-Dec-01 17:28N 51°48' E 004°38'0 0.0
2017-Dec-01 16:58N 51°48' E 004°38'0 0.0
2017-Dec-01 16:28N 51°48' E 004°38'0 0.0
2017-Dec-01 15:58N 51°48' E 004°38'0 0.0
2017-Dec-01 15:28N 51°48' E 004°38'0 0.0
2017-Dec-01 14:58N 51°48' E 004°38'  

Dump ship's entire track history